sensor_id;sensor_type;location;lat;lon;timestamp;pressure;altitude;pressure_sealevel;temperature;humidity
47913;BME280;33676;51.006;17.180;2024-01-30T00:00:52;101816.43;;;1.96;85.24
47913;BME280;33676;51.006;17.180;2024-01-30T00:03:41;101821.02;;;1.90;85.45
47913;BME280;33676;51.006;17.180;2024-01-30T00:06:11;101826.61;;;1.86;85.55
47913;BME280;33676;51.006;17.180;2024-01-30T00:08:40;101828.21;;;1.83;85.84
47913;BME280;33676;51.006;17.180;2024-01-30T00:11:09;101827.05;;;1.80;85.75
47913;BME280;33676;51.006;17.180;2024-01-30T00:13:37;101828.83;;;1.77;85.63
47913;BME280;33676;51.006;17.180;2024-01-30T00:16:06;101821.44;;;1.75;86.21
47913;BME280;33676;51.006;17.180;2024-01-30T00:18:35;101822.70;;;1.72;86.08
47913;BME280;33676;51.006;17.180;2024-01-30T00:21:04;101822.61;;;1.67;86.07
47913;BME280;33676;51.006;17.180;2024-01-30T00:23:33;101817.34;;;1.63;85.77
47913;BME280;33676;51.006;17.180;2024-01-30T00:26:01;101818.98;;;1.58;85.89
47913;BME280;33676;51.006;17.180;2024-01-30T00:28:30;101819.77;;;1.53;85.59
47913;BME280;33676;51.006;17.180;2024-01-30T00:30:59;101819.48;;;1.49;85.68
47913;BME280;33676;51.006;17.180;2024-01-30T00:33:28;101820.41;;;1.45;85.57
47913;BME280;33676;51.006;17.180;2024-01-30T00:35:56;101823.08;;;1.40;85.66
47913;BME280;33676;51.006;17.180;2024-01-30T00:38:25;101820.40;;;1.34;85.77
47913;BME280;33676;51.006;17.180;2024-01-30T00:40:53;101825.59;;;1.32;86.04
47913;BME280;33676;51.006;17.180;2024-01-30T00:43:22;101822.67;;;1.32;86.31
47913;BME280;33676;51.006;17.180;2024-01-30T00:45:50;101821.29;;;1.31;86.60
47913;BME280;33676;51.006;17.180;2024-01-30T00:48:20;101818.02;;;1.32;86.75
47913;BME280;33676;51.006;17.180;2024-01-30T00:50:49;101818.89;;;1.30;86.87
47913;BME280;33676;51.006;17.180;2024-01-30T00:53:18;101823.58;;;1.28;86.76
47913;BME280;33676;51.006;17.180;2024-01-30T00:55:47;101826.36;;;1.27;86.72
47913;BME280;33676;51.006;17.180;2024-01-30T00:58:16;101831.55;;;1.25;86.52
47913;BME280;33676;51.006;17.180;2024-01-30T01:00:44;101830.53;;;1.24;86.61
47913;BME280;33676;51.006;17.180;2024-01-30T01:03:13;101827.80;;;1.22;86.58
47913;BME280;33676;51.006;17.180;2024-01-30T01:05:42;101827.13;;;1.21;86.66
47913;BME280;33676;51.006;17.180;2024-01-30T01:08:11;101825.27;;;1.19;86.68
47913;BME280;33676;51.006;17.180;2024-01-30T01:10:39;101816.02;;;1.15;86.50
47913;BME280;33676;51.006;17.180;2024-01-30T01:13:08;101817.77;;;1.14;86.46
47913;BME280;33676;51.006;17.180;2024-01-30T01:15:36;101815.36;;;1.12;86.91
47913;BME280;33676;51.006;17.180;2024-01-30T01:18:05;101824.30;;;1.14;87.20
47913;BME280;33676;51.006;17.180;2024-01-30T01:20:34;101820.15;;;1.15;87.18
47913;BME280;33676;51.006;17.180;2024-01-30T01:23:03;101818.77;;;1.15;87.28
47913;BME280;33676;51.006;17.180;2024-01-30T01:25:31;101818.61;;;1.15;87.20
47913;BME280;33676;51.006;17.180;2024-01-30T01:28:00;101816.21;;;1.13;87.03
47913;BME280;33676;51.006;17.180;2024-01-30T01:30:29;101814.70;;;1.11;87.14
47913;BME280;33676;51.006;17.180;2024-01-30T01:32:58;101816.44;;;1.10;87.09
47913;BME280;33676;51.006;17.180;2024-01-30T01:35:29;101814.41;;;1.07;86.75
47913;BME280;33676;51.006;17.180;2024-01-30T01:37:58;101813.63;;;1.03;86.97
47913;BME280;33676;51.006;17.180;2024-01-30T01:40:29;101809.54;;;1.00;86.68
47913;BME280;33676;51.006;17.180;2024-01-30T01:42:57;101813.20;;;0.97;86.75
47913;BME280;33676;51.006;17.180;2024-01-30T01:45:26;101812.36;;;0.95;86.69
47913;BME280;33676;51.006;17.180;2024-01-30T01:47:54;101815.33;;;0.93;86.80
47913;BME280;33676;51.006;17.180;2024-01-30T01:50:24;101812.77;;;0.92;86.82
47913;BME280;33676;51.006;17.180;2024-01-30T01:52:54;101806.77;;;0.89;86.99
47913;BME280;33676;51.006;17.180;2024-01-30T01:55:23;101805.89;;;0.90;87.18
47913;BME280;33676;51.006;17.180;2024-01-30T01:57:53;101808.30;;;0.90;87.51
47913;BME280;33676;51.006;17.180;2024-01-30T02:00:23;101805.89;;;0.91;87.53
47913;BME280;33676;51.006;17.180;2024-01-30T02:02:53;101808.24;;;0.94;88.10
47913;BME280;33676;51.006;17.180;2024-01-30T02:05:22;101808.08;;;0.95;87.78
47913;BME280;33676;51.006;17.180;2024-01-30T02:07:52;101807.02;;;0.95;87.79
47913;BME280;33676;51.006;17.180;2024-01-30T02:11:00;101806.84;;;0.96;87.68
47913;BME280;33676;51.006;17.180;2024-01-30T02:13:27;101804.95;;;0.96;87.52
47913;BME280;33676;51.006;17.180;2024-01-30T02:15:55;101804.06;;;0.98;87.79
47913;BME280;33676;51.006;17.180;2024-01-30T02:18:22;101803.38;;;0.98;87.79
47913;BME280;33676;51.006;17.180;2024-01-30T02:20:53;101808.18;;;0.99;87.74
47913;BME280;33676;51.006;17.180;2024-01-30T02:23:20;101805.09;;;0.98;87.81
47913;BME280;33676;51.006;17.180;2024-01-30T02:25:50;101803.73;;;0.97;87.80
47913;BME280;33676;51.006;17.180;2024-01-30T02:28:19;101800.79;;;0.98;87.91
47913;BME280;33676;51.006;17.180;2024-01-30T02:30:47;101800.61;;;0.98;87.71
47913;BME280;33676;51.006;17.180;2024-01-30T02:33:14;101800.95;;;0.98;87.88
47913;BME280;33676;51.006;17.180;2024-01-30T02:35:41;101804.58;;;0.98;87.73
47913;BME280;33676;51.006;17.180;2024-01-30T02:38:08;101802.00;;;0.98;87.84
47913;BME280;33676;51.006;17.180;2024-01-30T02:40:36;101802.17;;;0.98;87.76
47913;BME280;33676;51.006;17.180;2024-01-30T02:43:04;101800.48;;;0.96;87.68
47913;BME280;33676;51.006;17.180;2024-01-30T02:45:31;101801.02;;;0.95;87.66
47913;BME280;33676;51.006;17.180;2024-01-30T02:47:58;101800.68;;;0.93;87.70
47913;BME280;33676;51.006;17.180;2024-01-30T02:50:26;101799.16;;;0.91;87.66
47913;BME280;33676;51.006;17.180;2024-01-30T02:52:53;101802.61;;;0.91;87.50
47913;BME280;33676;51.006;17.180;2024-01-30T02:55:20;101800.55;;;0.90;87.57
47913;BME280;33676;51.006;17.180;2024-01-30T02:57:47;101800.73;;;0.91;87.72
47913;BME280;33676;51.006;17.180;2024-01-30T03:00:15;101798.31;;;0.90;87.81
47913;BME280;33676;51.006;17.180;2024-01-30T03:02:42;101798.16;;;0.88;87.64
47913;BME280;33676;51.006;17.180;2024-01-30T03:05:09;101795.78;;;0.87;87.44
47913;BME280;33676;51.006;17.180;2024-01-30T03:07:36;101800.29;;;0.85;87.39
47913;BME280;33676;51.006;17.180;2024-01-30T03:10:06;101802.88;;;0.84;87.46
47913;BME280;33676;51.006;17.180;2024-01-30T03:12:33;101798.08;;;0.83;87.41
47913;BME280;33676;51.006;17.180;2024-01-30T03:15:00;101796.88;;;0.81;87.27
47913;BME280;33676;51.006;17.180;2024-01-30T03:17:28;101798.81;;;0.79;87.34
47913;BME280;33676;51.006;17.180;2024-01-30T03:19:55;101796.11;;;0.75;87.32
47913;BME280;33676;51.006;17.180;2024-01-30T03:22:22;101794.09;;;0.72;87.05
47913;BME280;33676;51.006;17.180;2024-01-30T03:24:50;101791.56;;;0.67;86.92
47913;BME280;33676;51.006;17.180;2024-01-30T03:27:17;101790.76;;;0.62;87.00
47913;BME280;33676;51.006;17.180;2024-01-30T03:29:44;101790.47;;;0.58;86.90
47913;BME280;33676;51.006;17.180;2024-01-30T03:32:12;101796.19;;;0.54;87.04
47913;BME280;33676;51.006;17.180;2024-01-30T03:34:39;101795.40;;;0.50;86.65
47913;BME280;33676;51.006;17.180;2024-01-30T03:37:06;101790.13;;;0.45;86.68
47913;BME280;33676;51.006;17.180;2024-01-30T03:39:33;101787.95;;;0.41;86.71
47913;BME280;33676;51.006;17.180;2024-01-30T03:42:00;101784.55;;;0.38;86.68
47913;BME280;33676;51.006;17.180;2024-01-30T03:44:27;101785.62;;;0.34;86.88
47913;BME280;33676;51.006;17.180;2024-01-30T03:46:54;101788.22;;;0.32;86.64
47913;BME280;33676;51.006;17.180;2024-01-30T03:49:21;101782.23;;;0.29;87.05
47913;BME280;33676;51.006;17.180;2024-01-30T03:51:49;101781.40;;;0.27;86.84
47913;BME280;33676;51.006;17.180;2024-01-30T03:54:16;101781.23;;;0.26;87.06
47913;BME280;33676;51.006;17.180;2024-01-30T03:56:43;101784.00;;;0.24;87.08
47913;BME280;33676;51.006;17.180;2024-01-30T03:59:10;101785.73;;;0.23;87.10
47913;BME280;33676;51.006;17.180;2024-01-30T04:01:37;101788.69;;;0.21;87.07
47913;BME280;33676;51.006;17.180;2024-01-30T04:04:05;101788.02;;;0.19;87.15
47913;BME280;33676;51.006;17.180;2024-01-30T04:06:32;101786.48;;;0.17;87.32
47913;BME280;33676;51.006;17.180;2024-01-30T04:08:59;101787.34;;;0.17;87.27
47913;BME280;33676;51.006;17.180;2024-01-30T04:11:26;101782.88;;;0.17;87.49
47913;BME280;33676;51.006;17.180;2024-01-30T04:13:53;101782.37;;;0.17;87.45
47913;BME280;33676;51.006;17.180;2024-01-30T04:16:21;101786.84;;;0.17;87.44
47913;BME280;33676;51.006;17.180;2024-01-30T04:18:52;101784.27;;;0.16;87.33
47913;BME280;33676;51.006;17.180;2024-01-30T04:21:21;101779.81;;;0.14;87.45
47913;BME280;33676;51.006;17.180;2024-01-30T04:23:50;101776.74;;;0.12;87.39
47913;BME280;33676;51.006;17.180;2024-01-30T04:26:18;101776.93;;;0.11;87.37
47913;BME280;33676;51.006;17.180;2024-01-30T04:28:45;101780.22;;;0.09;87.35
47913;BME280;33676;51.006;17.180;2024-01-30T04:31:12;101781.77;;;0.09;87.47
47913;BME280;33676;51.006;17.180;2024-01-30T04:33:39;101785.90;;;0.08;87.80
47913;BME280;33676;51.006;17.180;2024-01-30T04:36:08;101783.32;;;0.08;87.84
47913;BME280;33676;51.006;17.180;2024-01-30T04:38:39;101784.35;;;0.08;87.59
47913;BME280;33676;51.006;17.180;2024-01-30T04:41:07;101783.66;;;0.08;88.02
47913;BME280;33676;51.006;17.180;2024-01-30T04:43:34;101784.68;;;0.10;88.17
47913;BME280;33676;51.006;17.180;2024-01-30T04:46:01;101787.25;;;0.11;88.15
47913;BME280;33676;51.006;17.180;2024-01-30T04:48:28;101788.11;;;0.11;88.10
47913;BME280;33676;51.006;17.180;2024-01-30T04:50:56;101791.17;;;0.13;88.17
47913;BME280;33676;51.006;17.180;2024-01-30T04:53:23;101791.67;;;0.15;88.34
47913;BME280;33676;51.006;17.180;2024-01-30T04:55:50;101785.65;;;0.15;88.33
47913;BME280;33676;51.006;17.180;2024-01-30T04:58:17;101784.09;;;0.17;88.60
47913;BME280;33676;51.006;17.180;2024-01-30T05:00:45;101782.52;;;0.19;88.52
47913;BME280;33676;51.006;17.180;2024-01-30T05:03:13;101781.65;;;0.20;88.59
47913;BME280;33676;51.006;17.180;2024-01-30T05:05:40;101784.56;;;0.21;88.72
47913;BME280;33676;51.006;17.180;2024-01-30T05:08:07;101784.02;;;0.23;88.74
47913;BME280;33676;51.006;17.180;2024-01-30T05:10:35;101784.69;;;0.25;88.78
47913;BME280;33676;51.006;17.180;2024-01-30T05:13:02;101793.78;;;0.26;88.69
47913;BME280;33676;51.006;17.180;2024-01-30T05:15:29;101791.02;;;0.28;88.87
47913;BME280;33676;51.006;17.180;2024-01-30T05:17:56;101792.55;;;0.29;89.17
47913;BME280;33676;51.006;17.180;2024-01-30T05:20:23;101789.10;;;0.30;88.93
47913;BME280;33676;51.006;17.180;2024-01-30T05:22:51;101789.25;;;0.33;89.09
47913;BME280;33676;51.006;17.180;2024-01-30T05:25:18;101787.66;;;0.36;89.38
47913;BME280;33676;51.006;17.180;2024-01-30T05:27:45;101786.27;;;0.37;89.08
47913;BME280;33676;51.006;17.180;2024-01-30T05:30:12;101786.45;;;0.36;88.97
47913;BME280;33676;51.006;17.180;2024-01-30T05:32:39;101785.77;;;0.37;89.15
47913;BME280;33676;51.006;17.180;2024-01-30T05:35:07;101784.39;;;0.36;88.90
47913;BME280;33676;51.006;17.180;2024-01-30T05:37:37;101787.99;;;0.37;88.93
47913;BME280;33676;51.006;17.180;2024-01-30T05:40:05;101792.13;;;0.37;89.22
47913;BME280;33676;51.006;17.180;2024-01-30T05:42:32;101791.08;;;0.39;89.29
47913;BME280;33676;51.006;17.180;2024-01-30T05:44:59;101793.79;;;0.42;89.27
47913;BME280;33676;51.006;17.180;2024-01-30T05:47:26;101791.31;;;0.47;89.95
47913;BME280;33676;51.006;17.180;2024-01-30T05:49:53;101794.48;;;0.53;90.26
47913;BME280;33676;51.006;17.180;2024-01-30T05:52:20;101792.11;;;0.64;90.89
47913;BME280;33676;51.006;17.180;2024-01-30T05:54:47;101800.59;;;0.74;91.24
47913;BME280;33676;51.006;17.180;2024-01-30T05:57:15;101798.77;;;0.83;91.43
47913;BME280;33676;51.006;17.180;2024-01-30T05:59:43;101794.35;;;0.91;91.70
47913;BME280;33676;51.006;17.180;2024-01-30T06:02:11;101790.95;;;1.00;91.72
47913;BME280;33676;51.006;17.180;2024-01-30T06:04:38;101792.02;;;1.08;91.55
47913;BME280;33676;51.006;17.180;2024-01-30T06:07:06;101793.33;;;1.13;91.24
47913;BME280;33676;51.006;17.180;2024-01-30T06:09:33;101792.71;;;1.19;91.34
47913;BME280;33676;51.006;17.180;2024-01-30T06:12:00;101793.48;;;1.25;91.42
47913;BME280;33676;51.006;17.180;2024-01-30T06:14:27;101795.64;;;1.31;91.15
47913;BME280;33676;51.006;17.180;2024-01-30T06:16:54;101798.66;;;1.36;91.23
47913;BME280;33676;51.006;17.180;2024-01-30T06:19:21;101797.55;;;1.42;91.13
47913;BME280;33676;51.006;17.180;2024-01-30T06:21:48;101801.94;;;1.47;91.33
47913;BME280;33676;51.006;17.180;2024-01-30T06:24:16;101801.55;;;1.50;91.00
47913;BME280;33676;51.006;17.180;2024-01-30T06:26:43;101801.14;;;1.54;91.00
47913;BME280;33676;51.006;17.180;2024-01-30T06:29:10;101800.05;;;1.56;90.74
47913;BME280;33676;51.006;17.180;2024-01-30T06:31:40;101793.98;;;1.58;90.78
47913;BME280;33676;51.006;17.180;2024-01-30T06:34:11;101790.47;;;1.62;90.65
47913;BME280;33676;51.006;17.180;2024-01-30T06:36:39;101785.60;;;1.64;90.63
47913;BME280;33676;51.006;17.180;2024-01-30T06:39:06;101785.21;;;1.67;90.66
47913;BME280;33676;51.006;17.180;2024-01-30T06:41:34;101787.88;;;1.72;90.83
47913;BME280;33676;51.006;17.180;2024-01-30T06:44:04;101791.79;;;1.76;90.77
47913;BME280;33676;51.006;17.180;2024-01-30T06:46:33;101789.30;;;1.80;90.82
47913;BME280;33676;51.006;17.180;2024-01-30T06:49:01;101792.83;;;1.85;90.92
47913;BME280;33676;51.006;17.180;2024-01-30T06:51:28;101792.89;;;1.91;90.98
47913;BME280;33676;51.006;17.180;2024-01-30T06:53:55;101788.27;;;2.00;91.12
47913;BME280;33676;51.006;17.180;2024-01-30T06:56:22;101789.64;;;2.09;91.09
47913;BME280;33676;51.006;17.180;2024-01-30T06:58:50;101791.04;;;2.16;91.12
47913;BME280;33676;51.006;17.180;2024-01-30T07:01:17;101792.10;;;2.24;90.99
47913;BME280;33676;51.006;17.180;2024-01-30T07:03:44;101796.48;;;2.29;90.95
47913;BME280;33676;51.006;17.180;2024-01-30T07:06:12;101797.61;;;2.33;90.87
47913;BME280;33676;51.006;17.180;2024-01-30T07:08:39;101799.38;;;2.40;90.72
47913;BME280;33676;51.006;17.180;2024-01-30T07:11:06;101807.63;;;2.50;90.57
47913;BME280;33676;51.006;17.180;2024-01-30T07:13:34;101806.84;;;2.55;89.85
47913;BME280;33676;51.006;17.180;2024-01-30T07:16:02;101807.86;;;2.47;88.94
47913;BME280;33676;51.006;17.180;2024-01-30T07:18:29;101805.23;;;2.41;89.39
47913;BME280;33676;51.006;17.180;2024-01-30T07:20:56;101806.96;;;2.40;89.57
47913;BME280;33676;51.006;17.180;2024-01-30T07:23:23;101805.84;;;2.45;89.81
47913;BME280;33676;51.006;17.180;2024-01-30T07:25:50;101808.63;;;2.52;89.94
47913;BME280;33676;51.006;17.180;2024-01-30T07:28:18;101810.23;;;2.66;90.63
47913;BME280;33676;51.006;17.180;2024-01-30T07:30:45;101806.52;;;2.87;91.63
47913;BME280;33676;51.006;17.180;2024-01-30T07:33:13;101807.10;;;2.99;91.38
47913;BME280;33676;51.006;17.180;2024-01-30T07:35:41;101805.29;;;3.11;91.33
47913;BME280;33676;51.006;17.180;2024-01-30T07:38:08;101803.14;;;3.20;91.08
47913;BME280;33676;51.006;17.180;2024-01-30T07:40:35;101798.27;;;3.29;90.99
47913;BME280;33676;51.006;17.180;2024-01-30T07:43:03;101793.23;;;3.38;90.84
47913;BME280;33676;51.006;17.180;2024-01-30T07:45:30;101797.17;;;3.47;90.78
47913;BME280;33676;51.006;17.180;2024-01-30T07:48:00;101800.23;;;3.56;90.57
47913;BME280;33676;51.006;17.180;2024-01-30T07:50:27;101799.27;;;3.66;90.34
47913;BME280;33676;51.006;17.180;2024-01-30T07:53:00;101802.27;;;3.77;90.55
47913;BME280;33676;51.006;17.180;2024-01-30T07:55:27;101801.84;;;3.88;90.43
47913;BME280;33676;51.006;17.180;2024-01-30T07:57:57;101801.06;;;3.97;90.28
47913;BME280;33676;51.006;17.180;2024-01-30T08:00:27;101799.43;;;4.07;90.12
47913;BME280;33676;51.006;17.180;2024-01-30T08:02:56;101796.59;;;4.16;90.10
47913;BME280;33676;51.006;17.180;2024-01-30T08:05:23;101797.92;;;4.23;89.86
47913;BME280;33676;51.006;17.180;2024-01-30T08:07:51;101792.19;;;4.31;89.87
47913;BME280;33676;51.006;17.180;2024-01-30T08:10:21;101790.73;;;4.39;89.65
47913;BME280;33676;51.006;17.180;2024-01-30T08:12:48;101790.15;;;4.48;89.68
47913;BME280;33676;51.006;17.180;2024-01-30T08:15:16;101786.77;;;4.57;89.54
47913;BME280;33676;51.006;17.180;2024-01-30T08:17:43;101790.45;;;4.67;89.51
47913;BME280;33676;51.006;17.180;2024-01-30T08:20:11;101787.89;;;4.77;89.25
47913;BME280;33676;51.006;17.180;2024-01-30T08:22:40;101783.83;;;4.86;89.27
47913;BME280;33676;51.006;17.180;2024-01-30T08:25:07;101785.66;;;4.93;89.09
47913;BME280;33676;51.006;17.180;2024-01-30T08:27:36;101788.16;;;5.03;88.12
47913;BME280;33676;51.006;17.180;2024-01-30T08:30:07;101788.65;;;5.09;87.76
47913;BME280;33676;51.006;17.180;2024-01-30T08:32:39;101788.25;;;5.11;87.10
47913;BME280;33676;51.006;17.180;2024-01-30T08:35:06;101784.54;;;5.14;86.64
47913;BME280;33676;51.006;17.180;2024-01-30T08:37:36;101783.64;;;5.20;86.78
47913;BME280;33676;51.006;17.180;2024-01-30T08:40:08;101781.48;;;5.38;87.96
47913;BME280;33676;51.006;17.180;2024-01-30T08:42:38;101780.30;;;5.58;88.36
47913;BME280;33676;51.006;17.180;2024-01-30T08:45:05;101778.70;;;5.79;87.82
47913;BME280;33676;51.006;17.180;2024-01-30T08:47:33;101780.23;;;6.01;87.76
47913;BME280;33676;51.006;17.180;2024-01-30T08:50:00;101779.65;;;6.23;87.93
47913;BME280;33676;51.006;17.180;2024-01-30T08:52:28;101783.52;;;6.45;87.83
47913;BME280;33676;51.006;17.180;2024-01-30T08:54:55;101783.77;;;6.66;87.76
47913;BME280;33676;51.006;17.180;2024-01-30T08:57:23;101783.25;;;6.88;87.42
47913;BME280;33676;51.006;17.180;2024-01-30T08:59:50;101781.61;;;7.08;87.24
47913;BME280;33676;51.006;17.180;2024-01-30T09:02:17;101776.80;;;7.28;87.21
47913;BME280;33676;51.006;17.180;2024-01-30T09:04:45;101779.91;;;7.50;86.89
47913;BME280;33676;51.006;17.180;2024-01-30T09:07:12;101775.23;;;7.71;86.85
47913;BME280;33676;51.006;17.180;2024-01-30T09:09:41;101775.05;;;7.91;86.32
47913;BME280;33676;51.006;17.180;2024-01-30T09:12:08;101776.14;;;8.09;85.93
47913;BME280;33676;51.006;17.180;2024-01-30T09:14:39;101773.89;;;8.29;85.77
47913;BME280;33676;51.006;17.180;2024-01-30T09:17:07;101773.23;;;8.48;85.27
47913;BME280;33676;51.006;17.180;2024-01-30T09:19:35;101773.88;;;8.68;85.12
47913;BME280;33676;51.006;17.180;2024-01-30T09:22:02;101773.86;;;8.87;84.81
47913;BME280;33676;51.006;17.180;2024-01-30T09:24:30;101776.23;;;9.07;84.98
47913;BME280;33676;51.006;17.180;2024-01-30T09:26:57;101773.05;;;9.26;84.69
47913;BME280;33676;51.006;17.180;2024-01-30T09:29:26;101774.23;;;9.44;84.47
47913;BME280;33676;51.006;17.180;2024-01-30T09:31:53;101773.61;;;9.63;84.27
47913;BME280;33676;51.006;17.180;2024-01-30T09:34:21;101772.02;;;9.81;83.85
47913;BME280;33676;51.006;17.180;2024-01-30T09:36:49;101772.91;;;9.97;83.22
47913;BME280;33676;51.006;17.180;2024-01-30T09:39:16;101774.96;;;10.12;82.85
47913;BME280;33676;51.006;17.180;2024-01-30T09:41:49;101772.16;;;10.26;82.61
47913;BME280;33676;51.006;17.180;2024-01-30T09:44:18;101772.20;;;10.41;82.48
47913;BME280;33676;51.006;17.180;2024-01-30T09:46:48;101774.20;;;10.59;82.42
47913;BME280;33676;51.006;17.180;2024-01-30T09:49:15;101771.31;;;10.77;82.47
47913;BME280;33676;51.006;17.180;2024-01-30T09:51:49;101771.05;;;10.97;82.52
47913;BME280;33676;51.006;17.180;2024-01-30T09:54:19;101770.25;;;11.17;82.48
47913;BME280;33676;51.006;17.180;2024-01-30T09:56:47;101771.36;;;11.32;81.69
47913;BME280;33676;51.006;17.180;2024-01-30T09:59:15;101772.09;;;11.40;81.03
47913;BME280;33676;51.006;17.180;2024-01-30T10:01:42;101767.18;;;11.52;81.05
47913;BME280;33676;51.006;17.180;2024-01-30T10:04:10;101759.46;;;11.65;80.82
47913;BME280;33676;51.006;17.180;2024-01-30T10:06:37;101756.96;;;11.77;80.72
47913;BME280;33676;51.006;17.180;2024-01-30T10:09:05;101755.30;;;11.90;80.54
47913;BME280;33676;51.006;17.180;2024-01-30T10:11:33;101747.91;;;12.00;79.56
47913;BME280;33676;51.006;17.180;2024-01-30T10:14:01;101750.45;;;11.93;76.99
47913;BME280;33676;51.006;17.180;2024-01-30T10:16:29;101739.77;;;11.71;75.85
47913;BME280;33676;51.006;17.180;2024-01-30T10:18:56;101740.69;;;11.50;75.04
47913;BME280;33676;51.006;17.180;2024-01-30T10:21:27;101738.41;;;11.36;74.73
47913;BME280;33676;51.006;17.180;2024-01-30T10:23:54;101732.83;;;11.41;76.50
47913;BME280;33676;51.006;17.180;2024-01-30T10:26:23;101734.77;;;11.68;77.60
47913;BME280;33676;51.006;17.180;2024-01-30T10:28:50;101725.33;;;11.94;77.43
47913;BME280;33676;51.006;17.180;2024-01-30T10:31:18;101724.85;;;12.16;77.45
47913;BME280;33676;51.006;17.180;2024-01-30T10:33:48;101726.81;;;12.38;77.63
47913;BME280;33676;51.006;17.180;2024-01-30T10:36:17;101727.52;;;12.57;76.90
47913;BME280;33676;51.006;17.180;2024-01-30T10:38:50;101727.75;;;12.73;76.64
47913;BME280;33676;51.006;17.180;2024-01-30T10:41:26;101728.52;;;12.91;76.94
47913;BME280;33676;51.006;17.180;2024-01-30T10:44:08;101719.77;;;13.12;76.66
47913;BME280;33676;51.006;17.180;2024-01-30T10:46:38;101716.13;;;13.27;76.03
47913;BME280;33676;51.006;17.180;2024-01-30T10:49:07;101703.65;;;13.43;76.23
47913;BME280;33676;51.006;17.180;2024-01-30T10:51:37;101706.13;;;13.58;75.62
47913;BME280;33676;51.006;17.180;2024-01-30T10:54:06;101706.63;;;13.66;74.67
47913;BME280;33676;51.006;17.180;2024-01-30T10:56:33;101706.92;;;13.74;74.64
47913;BME280;33676;51.006;17.180;2024-01-30T10:59:02;101702.46;;;13.86;74.60
47913;BME280;33676;51.006;17.180;2024-01-30T11:01:30;101699.73;;;14.00;74.71
47913;BME280;33676;51.006;17.180;2024-01-30T11:04:00;101695.80;;;14.08;73.79
47913;BME280;33676;51.006;17.180;2024-01-30T11:06:28;101701.52;;;14.16;73.98
47913;BME280;33676;51.006;17.180;2024-01-30T11:09:04;101697.46;;;14.34;74.30
47913;BME280;33676;51.006;17.180;2024-01-30T11:11:58;101693.46;;;14.51;73.80
47913;BME280;33676;51.006;17.180;2024-01-30T11:14:30;101690.89;;;14.70;73.74
47913;BME280;33676;51.006;17.180;2024-01-30T11:16:58;101682.75;;;14.77;72.89
47913;BME280;33676;51.006;17.180;2024-01-30T11:19:26;101683.47;;;14.82;72.25
47913;BME280;33676;51.006;17.180;2024-01-30T11:21:55;101679.23;;;14.89;72.35
47913;BME280;33676;51.006;17.180;2024-01-30T11:24:24;101677.46;;;14.94;72.05
47913;BME280;33676;51.006;17.180;2024-01-30T11:26:59;101676.01;;;14.97;71.80
47913;BME280;33676;51.006;17.180;2024-01-30T11:29:28;101677.01;;;14.98;71.09
47913;BME280;33676;51.006;17.180;2024-01-30T11:31:58;101672.34;;;14.99;71.11
47913;BME280;33676;51.006;17.180;2024-01-30T11:34:28;101664.37;;;15.07;71.42
47913;BME280;33676;51.006;17.180;2024-01-30T11:37:09;101662.51;;;15.19;71.46
47913;BME280;33676;51.006;17.180;2024-01-30T11:39:39;101663.09;;;15.28;71.10
47913;BME280;33676;51.006;17.180;2024-01-30T11:42:08;101663.99;;;15.28;70.34
47913;BME280;33676;51.006;17.180;2024-01-30T11:44:35;101657.20;;;15.32;70.40
47913;BME280;33676;51.006;17.180;2024-01-30T11:47:03;101658.98;;;15.36;69.62
47913;BME280;33676;51.006;17.180;2024-01-30T11:49:30;101656.48;;;15.30;68.89
47913;BME280;33676;51.006;17.180;2024-01-30T11:51:58;101652.67;;;15.26;68.66
47913;BME280;33676;51.006;17.180;2024-01-30T11:54:25;101647.10;;;15.20;67.79
47913;BME280;33676;51.006;17.180;2024-01-30T11:56:52;101648.13;;;15.16;68.30
47913;BME280;33676;51.006;17.180;2024-01-30T11:59:23;101641.04;;;15.14;67.62
47913;BME280;33676;51.006;17.180;2024-01-30T12:01:54;101640.91;;;15.00;66.70
47913;BME280;33676;51.006;17.180;2024-01-30T12:04:21;101635.43;;;14.86;66.43
47913;BME280;33676;51.006;17.180;2024-01-30T12:06:51;101637.38;;;14.86;67.10
47913;BME280;33676;51.006;17.180;2024-01-30T12:09:19;101634.71;;;14.96;67.60
47913;BME280;33676;51.006;17.180;2024-01-30T12:11:50;101632.00;;;15.04;67.54
47913;BME280;33676;51.006;17.180;2024-01-30T12:14:29;101628.17;;;15.12;67.39
47913;BME280;33676;51.006;17.180;2024-01-30T12:16:56;101629.42;;;15.19;67.06
47913;BME280;33676;51.006;17.180;2024-01-30T12:19:24;101624.69;;;15.18;66.81
47913;BME280;33676;51.006;17.180;2024-01-30T12:22:02;101617.34;;;15.23;66.33
47913;BME280;33676;51.006;17.180;2024-01-30T12:24:30;101614.66;;;15.16;66.09
47913;BME280;33676;51.006;17.180;2024-01-30T12:26:58;101612.66;;;15.12;65.78
47913;BME280;33676;51.006;17.180;2024-01-30T12:29:26;101612.73;;;15.20;66.31
47913;BME280;33676;51.006;17.180;2024-01-30T12:31:59;101607.34;;;15.32;66.43
47913;BME280;33676;51.006;17.180;2024-01-30T12:34:27;101612.27;;;15.24;65.92
47913;BME280;33676;51.006;17.180;2024-01-30T12:36:56;101612.55;;;15.00;65.31
47913;BME280;33676;51.006;17.180;2024-01-30T12:39:40;101608.77;;;14.71;64.34
47913;BME280;33676;51.006;17.180;2024-01-30T12:42:07;101607.96;;;14.36;64.36
47913;BME280;33676;51.006;17.180;2024-01-30T12:44:34;101604.59;;;14.22;64.83
47913;BME280;33676;51.006;17.180;2024-01-30T12:47:05;101605.38;;;14.13;65.09
47913;BME280;33676;51.006;17.180;2024-01-30T12:49:33;101602.55;;;14.02;65.24
47913;BME280;33676;51.006;17.180;2024-01-30T12:52:00;101598.46;;;13.98;65.60
47913;BME280;33676;51.006;17.180;2024-01-30T12:54:28;101596.98;;;13.88;65.36